createdAt,value
2022-11-09T00:01:04.837Z,13.07
2022-11-09T00:03:31.891Z,14.23
2022-11-09T00:05:59.997Z,13.68
2022-11-09T00:08:27.028Z,14.70
2022-11-09T00:10:53.798Z,14.95
2022-11-09T00:13:21.157Z,13.87
2022-11-09T00:18:17.527Z,13.95
2022-11-09T00:20:47.496Z,16.38
2022-11-09T00:23:15.436Z,14.25
2022-11-09T00:25:42.226Z,15.50
2022-11-09T00:28:16.430Z,13.53
2022-11-09T00:30:44.572Z,15.27
2022-11-09T00:33:12.203Z,16.52
2022-11-09T00:38:06.492Z,13.90
2022-11-09T00:40:35.073Z,16.48
2022-11-09T00:43:01.788Z,17.02
2022-11-09T00:45:28.753Z,17.15
2022-11-09T00:47:55.564Z,17.58
2022-11-09T00:50:23.545Z,16.43
2022-11-09T00:52:51.164Z,15.68
2022-11-09T00:55:20.923Z,14.60
2022-11-09T00:57:51.917Z,15.63
2022-11-09T01:00:23.721Z,14.05
2022-11-09T01:02:53.362Z,15.85
2022-11-09T01:05:20.521Z,14.10
2022-11-09T01:07:47.206Z,13.45
2022-11-09T01:10:13.949Z,13.57
2022-11-09T01:12:40.640Z,13.17
2022-11-09T01:15:07.753Z,15.40
2022-11-09T01:17:35.681Z,12.85
2022-11-09T01:20:02.395Z,12.77
2022-11-09T01:22:29.329Z,13.25
2022-11-09T01:24:55.984Z,13.43
2022-11-09T01:27:22.697Z,12.75
2022-11-09T01:29:49.414Z,12.57
2022-11-09T01:32:16.225Z,12.50
2022-11-09T01:34:43.511Z,13.47
2022-11-09T01:37:10.176Z,12.32
2022-11-09T01:39:36.990Z,12.85
2022-11-09T01:42:03.780Z,12.47
2022-11-09T01:44:31.184Z,12.90
2022-11-09T01:47:03.703Z,12.82
2022-11-09T01:49:41.142Z,12.75
2022-11-09T01:52:18.045Z,13.37
2022-11-09T01:54:48.144Z,14.48
2022-11-09T01:57:27.392Z,14.93
2022-11-09T02:00:14.053Z,15.18
2022-11-09T02:02:57.121Z,14.77
2022-11-09T02:05:29.670Z,16.63
2022-11-09T02:08:01.754Z,15.75
2022-11-09T02:10:45.448Z,15.02
2022-11-09T02:13:15.563Z,16.40
2022-11-09T02:15:45.708Z,15.38
2022-11-09T02:18:12.900Z,15.13
2022-11-09T02:20:50.705Z,15.67
2022-11-09T02:23:18.624Z,14.95
2022-11-09T02:25:51.158Z,14.50
2022-11-09T02:28:18.594Z,14.20
2022-11-09T02:30:49.656Z,12.88
2022-11-09T02:33:16.791Z,13.27
2022-11-09T02:35:43.648Z,14.25
2022-11-09T02:38:12.206Z,13.20
2022-11-09T02:40:51.448Z,13.73
2022-11-09T02:43:19.647Z,11.95
2022-11-09T02:45:46.539Z,12.35
2022-11-09T02:48:13.429Z,12.98
2022-11-09T02:50:40.156Z,10.77
2022-11-09T02:53:07.543Z,10.90
2022-11-09T02:55:34.286Z,10.43
2022-11-09T02:58:01.782Z,11.87
2022-11-09T03:00:28.618Z,10.82
2022-11-09T03:02:55.495Z,11.00
2022-11-09T03:05:22.313Z,10.85
2022-11-09T03:07:49.420Z,11.00
2022-11-09T03:10:18.620Z,11.27
2022-11-09T03:12:45.330Z,10.77
2022-11-09T03:15:13.445Z,11.65
2022-11-09T03:17:40.412Z,11.55
2022-11-09T03:20:08.967Z,11.00
2022-11-09T03:22:37.758Z,11.93
2022-11-09T03:25:04.994Z,11.15
2022-11-09T03:27:31.657Z,10.35
2022-11-09T03:29:59.076Z,10.85
2022-11-09T03:32:25.789Z,11.07
2022-11-09T03:34:52.494Z,11.43
2022-11-09T03:37:19.484Z,10.93
2022-11-09T03:39:46.277Z,10.30
2022-11-09T03:42:14.704Z,11.20
2022-11-09T03:44:41.557Z,11.38
2022-11-09T03:47:10.363Z,10.13
2022-11-09T03:49:37.340Z,10.85
2022-11-09T03:52:04.270Z,10.65
2022-11-09T03:54:31.062Z,10.90
2022-11-09T03:56:57.875Z,10.87
2022-11-09T03:59:24.521Z,9.70
2022-11-09T04:01:52.425Z,9.98
2022-11-09T04:04:19.109Z,10.10
2022-11-09T04:06:45.956Z,8.60
2022-11-09T04:09:12.734Z,10.55
2022-11-09T04:11:39.466Z,10.70
2022-11-09T04:14:06.274Z,11.00
2022-11-09T04:16:33.314Z,10.53
2022-11-09T04:19:00.097Z,9.73
2022-11-09T04:21:28.384Z,10.27
2022-11-09T04:23:57.098Z,12.73
2022-11-09T04:26:23.873Z,11.18
2022-11-09T04:28:50.703Z,11.03
2022-11-09T04:31:17.423Z,10.80
2022-11-09T04:33:44.260Z,11.02
2022-11-09T04:36:11.048Z,11.30
2022-11-09T04:38:37.758Z,9.97
2022-11-09T04:41:04.751Z,9.77
2022-11-09T04:43:33.947Z,10.55
2022-11-09T04:46:02.149Z,11.38
2022-11-09T04:48:31.711Z,9.57
2022-11-09T04:51:07.102Z,10.45
2022-11-09T04:53:35.300Z,10.10
2022-11-09T04:56:02.304Z,10.07
2022-11-09T04:58:28.958Z,9.85
2022-11-09T05:01:05.079Z,10.38
2022-11-09T05:03:32.096Z,9.98
2022-11-09T05:05:59.024Z,9.13
2022-11-09T05:08:26.166Z,8.77
2022-11-09T05:10:58.039Z,9.93
2022-11-09T05:13:24.681Z,8.77
2022-11-09T05:15:51.375Z,9.20
2022-11-09T05:18:17.999Z,9.15
2022-11-09T05:20:44.678Z,9.15
2022-11-09T05:23:30.836Z,8.50
2022-11-09T05:25:57.501Z,7.43
2022-11-09T05:28:28.354Z,7.70
2022-11-09T05:30:56.242Z,8.48
2022-11-09T05:33:25.924Z,8.98
2022-11-09T05:35:55.355Z,7.03
2022-11-09T05:38:23.642Z,8.38
2022-11-09T05:40:52.092Z,7.90
2022-11-09T05:43:20.038Z,7.90
2022-11-09T05:45:47.539Z,7.43
2022-11-09T05:48:18.735Z,6.82
2022-11-09T05:50:45.785Z,7.10
2022-11-09T05:53:12.942Z,7.35
2022-11-09T05:55:47.009Z,7.28
2022-11-09T05:58:14.638Z,8.32
2022-11-09T06:03:11.000Z,8.05
2022-11-09T06:05:40.308Z,7.68
2022-11-09T06:08:13.440Z,8.13
2022-11-09T06:10:41.739Z,10.10
2022-11-09T06:13:09.392Z,11.18
2022-11-09T06:18:03.884Z,9.27
2022-11-09T06:20:30.725Z,10.13
2022-11-09T06:23:03.599Z,9.53
2022-11-09T06:25:33.304Z,8.45
2022-11-09T06:28:02.164Z,9.20
2022-11-09T06:30:31.079Z,9.93
2022-11-09T06:33:00.899Z,10.95
2022-11-09T06:35:30.450Z,14.38
2022-11-09T06:37:58.757Z,14.77
2022-11-09T06:40:33.798Z,15.13
2022-11-09T06:43:00.932Z,15.93
2022-11-09T06:45:29.289Z,15.70
2022-11-09T06:47:58.907Z,15.40
2022-11-09T06:50:27.715Z,15.30
2022-11-09T06:53:09.701Z,16.52
2022-11-09T06:55:37.235Z,16.30
2022-11-09T06:58:09.396Z,16.83
2022-11-09T07:00:36.809Z,17.98
2022-11-09T07:03:07.110Z,20.70
2022-11-09T07:05:38.769Z,21.10
2022-11-09T07:08:18.131Z,20.05
2022-11-09T07:10:49.737Z,19.05
2022-11-09T07:13:16.504Z,15.65
2022-11-09T07:15:43.817Z,17.37
2022-11-09T07:18:12.804Z,18.25
2022-11-09T07:20:39.486Z,16.90
2022-11-09T07:23:06.450Z,16.10
2022-11-09T07:25:33.636Z,16.38
2022-11-09T07:28:08.948Z,16.33
2022-11-09T07:30:36.876Z,16.98
2022-11-09T07:33:14.145Z,17.00
2022-11-09T07:35:41.526Z,15.13
2022-11-09T07:38:09.197Z,13.98
2022-11-09T07:43:04.373Z,13.13
2022-11-09T07:45:32.499Z,11.80
2022-11-09T07:48:05.805Z,12.23
2022-11-09T07:50:35.586Z,11.02
2022-11-09T07:53:02.830Z,10.82
2022-11-09T07:55:30.427Z,10.00
2022-11-09T07:58:02.502Z,9.48
2022-11-09T08:00:31.310Z,9.25
2022-11-09T08:02:58.295Z,10.02
2022-11-09T08:05:25.414Z,10.07
2022-11-09T08:07:59.841Z,10.40
2022-11-09T08:10:28.033Z,10.00
2022-11-09T08:13:18.805Z,9.45
2022-11-09T08:15:46.112Z,9.05
2022-11-09T08:18:19.862Z,9.07
2022-11-09T08:20:49.852Z,9.50
2022-11-09T08:23:18.429Z,9.05
2022-11-09T08:25:45.353Z,8.90
2022-11-09T08:28:15.000Z,11.18
2022-11-09T08:30:44.313Z,10.00
2022-11-09T08:33:19.042Z,11.98
2022-11-09T08:35:53.044Z,12.40
2022-11-09T08:38:20.455Z,11.15
2022-11-09T08:40:47.434Z,11.80
2022-11-09T08:43:14.460Z,13.20
2022-11-09T08:45:41.799Z,11.07
2022-11-09T08:48:10.631Z,11.88
2022-11-09T08:50:37.789Z,11.55
2022-11-09T08:53:07.672Z,11.65
2022-11-09T08:55:40.323Z,11.65
2022-11-09T08:58:07.403Z,12.75
2022-11-09T09:00:34.324Z,14.20
2022-11-09T09:03:05.999Z,14.05
2022-11-09T09:05:36.047Z,14.20
2022-11-09T09:08:05.315Z,13.25
2022-11-09T09:10:35.493Z,14.30
2022-11-09T09:13:03.829Z,16.20
2022-11-09T09:15:31.238Z,11.90
2022-11-09T09:18:01.716Z,11.05
2022-11-09T09:20:30.819Z,10.80
2022-11-09T09:22:59.305Z,11.70
2022-11-09T09:25:27.083Z,10.48
2022-11-09T09:27:54.067Z,9.48
2022-11-09T09:30:21.061Z,8.82
2022-11-09T09:32:50.284Z,8.77
2022-11-09T09:35:17.686Z,8.45
2022-11-09T09:37:44.755Z,8.40
2022-11-09T09:40:46.091Z,9.27
2022-11-09T09:43:28.635Z,8.25
2022-11-09T09:45:58.350Z,8.48
2022-11-09T09:48:53.494Z,7.93
2022-11-09T09:51:37.985Z,7.15
2022-11-09T09:54:24.135Z,7.78
2022-11-09T09:56:53.288Z,8.05
2022-11-09T09:59:37.260Z,7.38
2022-11-09T10:02:21.888Z,7.40
2022-11-09T10:04:49.125Z,6.05
2022-11-09T10:07:18.553Z,6.45
2022-11-09T10:10:09.866Z,5.65
2022-11-09T10:12:55.695Z,6.15
2022-11-09T10:15:54.453Z,5.35
2022-11-09T10:18:23.514Z,4.68
2022-11-09T10:21:06.633Z,4.10
2022-11-09T10:23:46.155Z,4.80
2022-11-09T10:26:26.205Z,4.18
2022-11-09T10:29:16.800Z,4.10
2022-11-09T10:31:46.022Z,3.85
2022-11-09T10:34:20.421Z,3.85
2022-11-09T10:36:55.460Z,4.20
2022-11-09T10:39:23.859Z,3.63
2022-11-09T10:41:50.596Z,3.17
2022-11-09T10:44:20.036Z,3.77
2022-11-09T10:47:05.629Z,3.17
2022-11-09T10:49:33.981Z,3.28
2022-11-09T10:52:01.261Z,3.40
2022-11-09T10:54:38.401Z,3.85
2022-11-09T10:57:22.918Z,3.47
2022-11-09T10:59:56.394Z,3.45
2022-11-09T11:02:29.160Z,4.07
2022-11-09T11:05:07.877Z,3.35
2022-11-09T11:07:35.959Z,3.70
2022-11-09T11:10:18.110Z,3.33
2022-11-09T11:13:06.561Z,3.10
2022-11-09T11:15:38.859Z,3.08
2022-11-09T11:18:25.910Z,4.15
2022-11-09T11:21:19.660Z,3.70
2022-11-09T11:24:08.896Z,3.55
2022-11-09T11:27:09.329Z,3.50
2022-11-09T11:29:48.765Z,2.92
2022-11-09T11:32:19.036Z,2.80
2022-11-09T11:34:59.589Z,2.58
2022-11-09T11:37:52.755Z,3.58
2022-11-09T11:40:35.079Z,2.72
2022-11-09T11:43:40.877Z,3.75
2022-11-09T11:46:41.763Z,3.53
2022-11-09T11:49:42.939Z,3.45
2022-11-09T11:52:27.905Z,3.55
2022-11-09T11:55:19.870Z,3.65
2022-11-09T11:58:08.202Z,3.30
2022-11-09T12:01:01.231Z,3.35
2022-11-09T12:03:34.010Z,3.17
2022-11-09T12:06:16.367Z,3.05
2022-11-09T12:09:13.504Z,2.92
2022-11-09T12:12:11.250Z,2.95
2022-11-09T12:14:52.649Z,3.08
2022-11-09T12:17:26.927Z,2.78
2022-11-09T12:20:08.258Z,2.92
2022-11-09T12:22:43.952Z,3.10
2022-11-09T12:25:21.709Z,2.55
2022-11-09T12:27:57.365Z,2.75
2022-11-09T12:30:30.931Z,2.65
2022-11-09T12:33:06.182Z,2.50
2022-11-09T12:35:43.702Z,2.28
2022-11-09T12:38:38.924Z,2.75
2022-11-09T12:41:13.697Z,2.33
2022-11-09T12:44:27.490Z,2.60
2022-11-09T12:47:10.527Z,2.58
2022-11-09T12:49:42.925Z,2.50
2022-11-09T12:52:14.910Z,2.70
2022-11-09T12:54:45.505Z,2.67
2022-11-09T12:57:21.336Z,2.35
2022-11-09T13:00:07.690Z,2.50
2022-11-09T13:02:59.083Z,2.30
2022-11-09T13:05:28.975Z,2.47
2022-11-09T13:08:02.025Z,2.53
2022-11-09T13:10:32.844Z,2.60
2022-11-09T13:13:22.982Z,2.72
2022-11-09T13:16:33.317Z,2.47
2022-11-09T13:21:29.746Z,3.00
2022-11-09T13:24:01.938Z,3.03
2022-11-09T13:26:34.409Z,2.65
2022-11-09T13:29:19.006Z,2.78
2022-11-09T13:32:11.669Z,2.80
2022-11-09T13:34:55.752Z,3.05
2022-11-09T13:37:41.061Z,3.03
2022-11-09T13:40:35.908Z,2.67
2022-11-09T13:43:08.731Z,2.78
2022-11-09T13:45:41.126Z,3.70
2022-11-09T13:48:25.508Z,3.60
2022-11-09T13:51:00.889Z,3.80
2022-11-09T13:53:31.771Z,3.70
2022-11-09T13:55:58.596Z,4.57
2022-11-09T13:58:38.726Z,3.47
2022-11-09T14:01:05.452Z,3.72
2022-11-09T14:03:32.207Z,3.17
2022-11-09T14:06:02.360Z,4.03
2022-11-09T14:08:40.216Z,3.63
2022-11-09T14:11:51.064Z,3.70
2022-11-09T14:14:51.526Z,3.78
2022-11-09T14:17:31.073Z,3.70
2022-11-09T14:20:13.109Z,3.88
2022-11-09T14:22:40.792Z,4.30
2022-11-09T14:25:17.803Z,4.47
2022-11-09T14:27:57.211Z,3.90
2022-11-09T14:30:28.793Z,3.85
2022-11-09T14:32:58.776Z,3.85
2022-11-09T14:35:33.394Z,4.80
2022-11-09T14:38:13.467Z,3.40
2022-11-09T14:40:45.782Z,3.35
2022-11-09T14:43:36.114Z,5.22
2022-11-09T14:46:06.595Z,4.15
2022-11-09T14:48:34.321Z,4.68
2022-11-09T14:51:04.386Z,3.78
2022-11-09T14:53:41.343Z,3.78
2022-11-09T14:56:11.234Z,4.65
2022-11-09T14:58:41.338Z,3.70
2022-11-09T15:01:20.080Z,3.45
2022-11-09T15:04:08.755Z,4.05
2022-11-09T15:06:36.744Z,3.35
2022-11-09T15:09:09.181Z,4.80
2022-11-09T15:11:39.061Z,4.90
2022-11-09T15:14:35.607Z,4.72
2022-11-09T15:17:33.458Z,4.75
2022-11-09T15:20:24.100Z,5.05
2022-11-09T15:23:03.737Z,4.70
2022-11-09T15:25:35.256Z,5.75
2022-11-09T15:28:02.033Z,5.97
2022-11-09T15:30:31.952Z,5.97
2022-11-09T15:32:58.677Z,5.65
2022-11-09T15:35:25.662Z,6.67
2022-11-09T15:37:54.093Z,5.35
2022-11-09T15:40:24.443Z,5.97
2022-11-09T15:42:52.894Z,5.65
2022-11-09T15:45:21.378Z,5.57
2022-11-09T15:47:55.204Z,6.35
2022-11-09T15:50:25.588Z,6.63
2022-11-09T15:52:53.001Z,6.93
2022-11-09T15:55:23.013Z,7.88
2022-11-09T15:57:52.940Z,10.55
2022-11-09T16:00:22.368Z,12.02
2022-11-09T16:02:51.129Z,11.05
2022-11-09T16:05:18.757Z,12.05
2022-11-09T16:10:16.070Z,12.38
2022-11-09T16:12:46.373Z,11.60
2022-11-09T16:15:14.712Z,9.02
2022-11-09T16:17:41.575Z,8.88
2022-11-09T16:20:08.901Z,10.57
2022-11-09T16:22:35.738Z,10.77
2022-11-09T16:25:03.980Z,11.82
2022-11-09T16:27:49.680Z,9.75
2022-11-09T16:30:19.546Z,10.25
2022-11-09T16:32:48.508Z,9.90
2022-11-09T16:35:26.839Z,9.80
2022-11-09T16:37:55.399Z,10.45
2022-11-09T16:40:23.262Z,10.75
2022-11-09T16:42:52.128Z,10.10
2022-11-09T16:45:19.561Z,11.32
2022-11-09T16:47:50.965Z,13.82
2022-11-09T16:50:17.812Z,13.55
2022-11-09T16:52:45.472Z,10.67
2022-11-09T16:57:39.176Z,21.42
2022-11-09T17:00:09.318Z,20.95
2022-11-09T17:02:36.250Z,18.27
2022-11-09T17:05:03.131Z,21.95
2022-11-09T17:07:31.894Z,18.70
2022-11-09T17:10:02.658Z,13.07
2022-11-09T17:12:31.567Z,12.32
2022-11-09T17:14:58.544Z,12.93
2022-11-09T17:17:28.498Z,11.70
2022-11-09T17:19:55.231Z,11.90
2022-11-09T17:22:22.119Z,9.37
2022-11-09T17:24:51.977Z,9.48
2022-11-09T17:27:19.980Z,10.25
2022-11-09T17:29:48.398Z,10.10
2022-11-09T17:32:16.764Z,9.60
2022-11-09T17:34:43.653Z,9.30
2022-11-09T17:37:10.321Z,8.70
2022-11-09T17:39:38.456Z,9.90
2022-11-09T17:42:08.416Z,9.57
2022-11-09T17:44:35.901Z,8.63
2022-11-09T17:47:06.257Z,9.18
2022-11-09T17:49:32.944Z,9.70
2022-11-09T17:51:59.806Z,9.67
2022-11-09T17:54:33.932Z,10.60
2022-11-09T17:57:11.686Z,26.45
2022-11-09T17:59:41.712Z,11.20
2022-11-09T18:02:12.645Z,14.40
2022-11-09T18:04:44.692Z,15.82
2022-11-09T18:07:11.870Z,22.20
2022-11-09T18:09:41.795Z,21.13
2022-11-09T18:12:10.016Z,20.35
2022-11-09T18:14:37.941Z,15.05
2022-11-09T18:17:08.339Z,30.27
2022-11-09T18:19:37.809Z,13.38
2022-11-09T18:22:07.538Z,14.05
2022-11-09T18:24:38.330Z,16.13
2022-11-09T18:27:05.182Z,11.37
2022-11-09T18:29:31.932Z,16.40
2022-11-09T18:32:01.107Z,14.67
2022-11-09T18:34:27.941Z,12.38
2022-11-09T18:36:54.644Z,12.83
2022-11-09T18:39:22.479Z,13.18
2022-11-09T18:41:49.810Z,21.23
2022-11-09T18:44:17.281Z,15.07
2022-11-09T18:46:46.274Z,12.75
2022-11-09T18:49:15.157Z,10.82
2022-11-09T18:51:48.818Z,10.63
2022-11-09T18:54:15.770Z,9.70
2022-11-09T18:56:43.000Z,8.93
2022-11-09T18:59:12.691Z,9.00
2022-11-09T19:01:42.574Z,8.85
2022-11-09T19:04:14.841Z,8.90
2022-11-09T19:06:45.122Z,8.48
2022-11-09T19:09:56.252Z,8.75
2022-11-09T19:12:24.315Z,8.82
2022-11-09T19:17:18.083Z,8.82
2022-11-09T19:19:49.896Z,9.70
2022-11-09T19:22:19.080Z,9.65
2022-11-09T19:24:47.017Z,10.13
2022-11-09T19:27:13.807Z,10.05
2022-11-09T19:29:40.695Z,11.17
2022-11-09T19:32:09.630Z,11.35
2022-11-09T19:34:37.435Z,11.20
2022-11-09T19:37:05.330Z,11.25
2022-11-09T19:39:41.802Z,12.93
2022-11-09T19:42:09.921Z,12.18
2022-11-09T19:44:36.932Z,12.95
2022-11-09T19:47:05.772Z,11.50
2022-11-09T19:49:34.020Z,22.40
2022-11-09T19:52:01.915Z,17.58
2022-11-09T19:54:29.780Z,15.25
2022-11-09T19:56:58.681Z,16.42
2022-11-09T19:59:31.407Z,15.50
2022-11-09T20:01:59.236Z,15.95
2022-11-09T20:04:47.148Z,15.02
2022-11-09T20:07:14.924Z,14.15
2022-11-09T20:09:45.361Z,13.65
2022-11-09T20:12:31.807Z,13.20
2022-11-09T20:15:18.667Z,13.77
2022-11-09T20:17:48.293Z,14.55
2022-11-09T20:20:16.376Z,15.02
2022-11-09T20:22:43.182Z,16.45
2022-11-09T20:25:18.013Z,14.87
2022-11-09T20:27:47.021Z,17.95
2022-11-09T20:30:13.940Z,17.38
2022-11-09T20:32:40.687Z,19.88
2022-11-09T20:35:09.143Z,15.67
2022-11-09T20:37:37.576Z,17.40
2022-11-09T20:40:08.738Z,20.30
2022-11-09T20:42:37.748Z,20.17
2022-11-09T20:45:04.964Z,20.92
2022-11-09T20:48:02.147Z,20.02
2022-11-09T20:50:18.682Z,17.90
2022-11-09T20:52:45.548Z,20.20
2022-11-09T20:55:13.778Z,19.97
2022-11-09T20:57:40.562Z,17.08
2022-11-09T21:00:09.708Z,16.43
2022-11-09T21:02:36.462Z,18.45
2022-11-09T21:05:06.113Z,17.27
2022-11-09T21:07:33.153Z,17.08
2022-11-09T21:09:59.957Z,17.60
2022-11-09T21:12:27.500Z,17.03
2022-11-09T21:14:54.643Z,16.48
2022-11-09T21:17:29.029Z,18.77
2022-11-09T21:19:56.875Z,18.13
2022-11-09T21:22:43.645Z,17.13
2022-11-09T21:25:29.096Z,16.70
2022-11-09T21:28:14.482Z,16.27
2022-11-09T21:30:41.293Z,15.77
2022-11-09T21:33:07.989Z,17.60
2022-11-09T21:35:34.902Z,16.77
2022-11-09T21:38:01.601Z,16.95
2022-11-09T21:40:28.532Z,14.73
2022-11-09T21:42:55.941Z,15.38
2022-11-09T21:45:24.820Z,14.60
2022-11-09T21:47:54.491Z,14.88
2022-11-09T21:50:22.238Z,15.65
2022-11-09T21:52:48.951Z,15.93
2022-11-09T21:55:15.703Z,15.90
2022-11-09T21:57:42.571Z,13.77
2022-11-09T22:00:10.099Z,15.45
2022-11-09T22:02:36.812Z,16.33
2022-11-09T22:05:03.653Z,16.40
2022-11-09T22:07:30.355Z,15.80
2022-11-09T22:10:09.803Z,16.67
2022-11-09T22:12:56.465Z,15.45
2022-11-09T22:15:41.811Z,16.10
2022-11-09T22:18:28.482Z,15.88
2022-11-09T22:20:56.690Z,17.25
2022-11-09T22:23:26.587Z,16.48
2022-11-09T22:25:55.641Z,17.13
2022-11-09T22:28:22.338Z,18.40
2022-11-09T22:30:49.064Z,18.27
2022-11-09T22:33:20.711Z,16.97
2022-11-09T22:35:56.772Z,18.25
2022-11-09T22:38:23.942Z,17.98
2022-11-09T22:40:50.722Z,19.00
2022-11-09T22:43:17.704Z,18.60
2022-11-09T22:45:44.612Z,17.88
2022-11-09T22:48:11.448Z,19.43
2022-11-09T22:50:38.217Z,19.87
2022-11-09T22:53:04.997Z,21.50
2022-11-09T22:55:31.822Z,19.43
2022-11-09T22:57:58.537Z,20.93
2022-11-09T23:00:25.255Z,19.50
2022-11-09T23:02:56.419Z,19.63
2022-11-09T23:05:23.354Z,19.60
2022-11-09T23:07:50.138Z,18.85
2022-11-09T23:10:16.923Z,18.63
2022-11-09T23:12:43.609Z,16.90
2022-11-09T23:15:13.303Z,17.43
2022-11-09T23:17:58.611Z,17.10
2022-11-09T23:20:31.225Z,18.95
2022-11-09T23:23:01.099Z,16.45
2022-11-09T23:25:46.463Z,17.37
2022-11-09T23:28:13.495Z,16.65
2022-11-09T23:30:41.455Z,17.90
2022-11-09T23:33:08.711Z,17.48
2022-11-09T23:35:36.919Z,18.60
2022-11-09T23:38:06.111Z,12.93
2022-11-09T23:40:35.606Z,14.65
2022-11-09T23:43:05.366Z,14.75
2022-11-09T23:45:34.293Z,11.90
2022-11-09T23:48:01.330Z,11.88
2022-11-09T23:50:29.166Z,12.05
2022-11-09T23:52:59.206Z,10.88
2022-11-09T23:55:28.012Z,13.57
2022-11-09T23:57:54.876Z,15.57
